sensor_id;sensor_type;location;lat;lon;timestamp;temperature;humidity
59556;DHT22;45374;52.746;6.304;2023-02-01T00:01:10;6.20;99.90
59556;DHT22;45374;52.746;6.304;2023-02-01T00:03:36;6.00;99.90
59556;DHT22;45374;52.746;6.304;2023-02-01T00:06:02;6.00;99.90
59556;DHT22;45374;52.746;6.304;2023-02-01T00:08:28;6.00;99.90
59556;DHT22;45374;52.746;6.304;2023-02-01T00:11:08;6.00;99.90
59556;DHT22;45374;52.746;6.304;2023-02-01T00:13:36;6.00;99.90
59556;DHT22;45374;52.746;6.304;2023-02-01T00:16:09;5.90;99.90
59556;DHT22;45374;52.746;6.304;2023-02-01T00:18:35;5.90;99.90
59556;DHT22;45374;52.746;6.304;2023-02-01T00:21:00;5.90;99.90
59556;DHT22;45374;52.746;6.304;2023-02-01T00:23:26;5.90;99.90
59556;DHT22;45374;52.746;6.304;2023-02-01T00:25:52;5.90;99.90
59556;DHT22;45374;52.746;6.304;2023-02-01T00:28:17;5.90;99.90
59556;DHT22;45374;52.746;6.304;2023-02-01T00:30:43;5.90;99.90
59556;DHT22;45374;52.746;6.304;2023-02-01T00:33:09;6.00;99.90
59556;DHT22;45374;52.746;6.304;2023-02-01T00:35:35;6.00;99.90
59556;DHT22;45374;52.746;6.304;2023-02-01T00:38:01;5.90;99.90
59556;DHT22;45374;52.746;6.304;2023-02-01T00:40:26;6.00;99.90
59556;DHT22;45374;52.746;6.304;2023-02-01T00:42:52;6.00;99.90
59556;DHT22;45374;52.746;6.304;2023-02-01T00:45:19;5.90;99.90
59556;DHT22;45374;52.746;6.304;2023-02-01T00:47:45;6.00;99.90
59556;DHT22;45374;52.746;6.304;2023-02-01T00:50:10;6.00;99.90
59556;DHT22;45374;52.746;6.304;2023-02-01T00:52:36;6.00;99.90
59556;DHT22;45374;52.746;6.304;2023-02-01T00:55:02;6.00;99.90
59556;DHT22;45374;52.746;6.304;2023-02-01T00:57:27;6.00;99.90
59556;DHT22;45374;52.746;6.304;2023-02-01T00:59:53;6.00;99.90
59556;DHT22;45374;52.746;6.304;2023-02-01T01:02:19;6.10;99.90
59556;DHT22;45374;52.746;6.304;2023-02-01T01:04:44;6.10;99.90
59556;DHT22;45374;52.746;6.304;2023-02-01T01:07:10;6.10;99.90
59556;DHT22;45374;52.746;6.304;2023-02-01T01:09:36;6.10;99.90
59556;DHT22;45374;52.746;6.304;2023-02-01T01:12:01;6.00;99.90
59556;DHT22;45374;52.746;6.304;2023-02-01T01:14:32;6.00;99.90
59556;DHT22;45374;52.746;6.304;2023-02-01T01:16:57;6.10;99.90
59556;DHT22;45374;52.746;6.304;2023-02-01T01:19:23;6.00;99.90
59556;DHT22;45374;52.746;6.304;2023-02-01T01:21:48;6.00;99.90
59556;DHT22;45374;52.746;6.304;2023-02-01T01:24:14;6.10;99.90
59556;DHT22;45374;52.746;6.304;2023-02-01T01:26:40;6.10;99.90
59556;DHT22;45374;52.746;6.304;2023-02-01T01:29:05;6.20;99.90
59556;DHT22;45374;52.746;6.304;2023-02-01T01:31:31;6.10;99.90
59556;DHT22;45374;52.746;6.304;2023-02-01T01:33:58;6.10;99.90
59556;DHT22;45374;52.746;6.304;2023-02-01T01:36:25;6.10;99.90
59556;DHT22;45374;52.746;6.304;2023-02-01T01:38:51;6.10;99.90
59556;DHT22;45374;52.746;6.304;2023-02-01T01:41:19;6.10;99.90
59556;DHT22;45374;52.746;6.304;2023-02-01T01:44:01;6.10;99.90
59556;DHT22;45374;52.746;6.304;2023-02-01T01:46:37;6.10;99.90
59556;DHT22;45374;52.746;6.304;2023-02-01T01:49:22;6.10;99.90
59556;DHT22;45374;52.746;6.304;2023-02-01T01:51:51;6.10;99.90
59556;DHT22;45374;52.746;6.304;2023-02-01T01:54:21;6.10;99.90
59556;DHT22;45374;52.746;6.304;2023-02-01T01:56:52;6.10;99.90
59556;DHT22;45374;52.746;6.304;2023-02-01T01:59:20;6.10;99.90
59556;DHT22;45374;52.746;6.304;2023-02-01T02:01:46;6.10;99.90
59556;DHT22;45374;52.746;6.304;2023-02-01T02:04:12;6.10;99.90
59556;DHT22;45374;52.746;6.304;2023-02-01T02:07:04;6.10;99.90
59556;DHT22;45374;52.746;6.304;2023-02-01T02:09:30;6.10;99.90
59556;DHT22;45374;52.746;6.304;2023-02-01T02:11:56;6.10;99.90
59556;DHT22;45374;52.746;6.304;2023-02-01T02:14:23;6.10;99.90
59556;DHT22;45374;52.746;6.304;2023-02-01T02:22:40;6.10;99.90
59556;DHT22;45374;52.746;6.304;2023-02-01T02:26:14;6.10;99.90
59556;DHT22;45374;52.746;6.304;2023-02-01T02:33:45;6.20;99.90
59556;DHT22;45374;52.746;6.304;2023-02-01T02:41:56;6.10;99.90
59556;DHT22;45374;52.746;6.304;2023-02-01T02:44:47;6.00;99.90
59556;DHT22;45374;52.746;6.304;2023-02-01T02:47:55;5.90;99.90
59556;DHT22;45374;52.746;6.304;2023-02-01T02:50:41;5.90;99.90
59556;DHT22;45374;52.746;6.304;2023-02-01T02:56:28;6.00;99.90
59556;DHT22;45374;52.746;6.304;2023-02-01T02:59:16;5.90;99.90
59556;DHT22;45374;52.746;6.304;2023-02-01T03:02:01;5.90;99.90
59556;DHT22;45374;52.746;6.304;2023-02-01T03:04:45;5.90;99.90
59556;DHT22;45374;52.746;6.304;2023-02-01T03:07:52;5.90;99.90
59556;DHT22;45374;52.746;6.304;2023-02-01T03:18:18;5.90;99.90
59556;DHT22;45374;52.746;6.304;2023-02-01T03:20:48;6.00;99.90
59556;DHT22;45374;52.746;6.304;2023-02-01T03:23:17;6.00;99.90
59556;DHT22;45374;52.746;6.304;2023-02-01T03:25:47;6.10;99.90
59556;DHT22;45374;52.746;6.304;2023-02-01T03:28:15;6.20;99.90
59556;DHT22;45374;52.746;6.304;2023-02-01T03:30:44;6.10;99.90
59556;DHT22;45374;52.746;6.304;2023-02-01T03:33:13;6.10;99.90
59556;DHT22;45374;52.746;6.304;2023-02-01T03:36:26;6.10;99.90
59556;DHT22;45374;52.746;6.304;2023-02-01T03:39:16;6.20;99.90
59556;DHT22;45374;52.746;6.304;2023-02-01T03:44:28;6.20;99.90
59556;DHT22;45374;52.746;6.304;2023-02-01T03:49:39;6.20;99.90
59556;DHT22;45374;52.746;6.304;2023-02-01T03:52:15;6.20;99.90
59556;DHT22;45374;52.746;6.304;2023-02-01T03:54:42;6.20;99.90
59556;DHT22;45374;52.746;6.304;2023-02-01T03:57:12;6.30;99.90
59556;DHT22;45374;52.746;6.304;2023-02-01T03:59:44;6.30;99.90
59556;DHT22;45374;52.746;6.304;2023-02-01T04:02:10;6.30;99.90
59556;DHT22;45374;52.746;6.304;2023-02-01T04:04:36;6.20;99.90
59556;DHT22;45374;52.746;6.304;2023-02-01T04:07:02;6.20;99.90
59556;DHT22;45374;52.746;6.304;2023-02-01T04:09:28;6.20;99.90
59556;DHT22;45374;52.746;6.304;2023-02-01T04:11:54;6.20;99.90
59556;DHT22;45374;52.746;6.304;2023-02-01T04:14:20;6.20;99.90
59556;DHT22;45374;52.746;6.304;2023-02-01T04:16:45;6.10;99.90
59556;DHT22;45374;52.746;6.304;2023-02-01T04:19:11;6.10;99.90
59556;DHT22;45374;52.746;6.304;2023-02-01T04:21:37;6.20;99.90
59556;DHT22;45374;52.746;6.304;2023-02-01T04:24:03;6.30;99.90
59556;DHT22;45374;52.746;6.304;2023-02-01T04:26:28;6.40;99.90
59556;DHT22;45374;52.746;6.304;2023-02-01T04:28:54;6.50;99.90
59556;DHT22;45374;52.746;6.304;2023-02-01T04:31:20;6.50;99.90
59556;DHT22;45374;52.746;6.304;2023-02-01T04:33:53;6.50;99.90
59556;DHT22;45374;52.746;6.304;2023-02-01T04:36:20;6.60;99.90
59556;DHT22;45374;52.746;6.304;2023-02-01T04:38:49;6.50;99.90
59556;DHT22;45374;52.746;6.304;2023-02-01T04:41:15;6.50;99.90
59556;DHT22;45374;52.746;6.304;2023-02-01T04:43:49;6.60;99.90
59556;DHT22;45374;52.746;6.304;2023-02-01T04:46:15;6.60;99.90
59556;DHT22;45374;52.746;6.304;2023-02-01T04:48:41;6.60;99.90
59556;DHT22;45374;52.746;6.304;2023-02-01T04:51:07;6.60;99.90
59556;DHT22;45374;52.746;6.304;2023-02-01T04:53:33;6.60;99.90
59556;DHT22;45374;52.746;6.304;2023-02-01T04:55:58;6.50;99.90
59556;DHT22;45374;52.746;6.304;2023-02-01T04:58:24;6.50;99.90
59556;DHT22;45374;52.746;6.304;2023-02-01T05:00:49;6.50;99.90
59556;DHT22;45374;52.746;6.304;2023-02-01T05:03:16;6.40;99.90
59556;DHT22;45374;52.746;6.304;2023-02-01T05:05:42;6.40;99.90
59556;DHT22;45374;52.746;6.304;2023-02-01T05:08:08;6.30;99.90
59556;DHT22;45374;52.746;6.304;2023-02-01T05:10:34;6.30;99.90
59556;DHT22;45374;52.746;6.304;2023-02-01T05:13:00;6.20;99.90
59556;DHT22;45374;52.746;6.304;2023-02-01T05:15:44;6.20;99.90
59556;DHT22;45374;52.746;6.304;2023-02-01T05:18:11;6.30;99.90
59556;DHT22;45374;52.746;6.304;2023-02-01T05:20:37;6.40;99.90
59556;DHT22;45374;52.746;6.304;2023-02-01T05:23:03;6.40;99.90
59556;DHT22;45374;52.746;6.304;2023-02-01T05:25:29;6.40;99.90
59556;DHT22;45374;52.746;6.304;2023-02-01T05:27:54;6.40;99.90
59556;DHT22;45374;52.746;6.304;2023-02-01T05:30:20;6.40;99.90
59556;DHT22;45374;52.746;6.304;2023-02-01T05:32:49;6.40;99.90
59556;DHT22;45374;52.746;6.304;2023-02-01T05:35:15;6.40;99.90
59556;DHT22;45374;52.746;6.304;2023-02-01T05:37:41;6.50;99.90
59556;DHT22;45374;52.746;6.304;2023-02-01T05:40:07;6.50;99.90
59556;DHT22;45374;52.746;6.304;2023-02-01T05:42:32;6.60;99.90
59556;DHT22;45374;52.746;6.304;2023-02-01T05:45:01;6.60;99.90
59556;DHT22;45374;52.746;6.304;2023-02-01T05:47:27;6.60;99.90
59556;DHT22;45374;52.746;6.304;2023-02-01T05:49:52;6.60;99.90
59556;DHT22;45374;52.746;6.304;2023-02-01T05:52:18;6.60;99.90
59556;DHT22;45374;52.746;6.304;2023-02-01T05:54:45;6.60;99.90
59556;DHT22;45374;52.746;6.304;2023-02-01T05:57:12;6.60;99.90
59556;DHT22;45374;52.746;6.304;2023-02-01T05:59:38;6.70;99.90
59556;DHT22;45374;52.746;6.304;2023-02-01T06:02:07;6.80;99.90
59556;DHT22;45374;52.746;6.304;2023-02-01T06:04:33;6.80;99.90
59556;DHT22;45374;52.746;6.304;2023-02-01T06:06:58;6.70;99.90
59556;DHT22;45374;52.746;6.304;2023-02-01T06:09:24;6.80;99.90
59556;DHT22;45374;52.746;6.304;2023-02-01T06:11:49;6.80;99.90
59556;DHT22;45374;52.746;6.304;2023-02-01T06:14:15;6.80;99.90
59556;DHT22;45374;52.746;6.304;2023-02-01T06:16:40;6.80;99.90
59556;DHT22;45374;52.746;6.304;2023-02-01T06:19:06;6.80;99.90
59556;DHT22;45374;52.746;6.304;2023-02-01T06:21:32;6.80;99.90
59556;DHT22;45374;52.746;6.304;2023-02-01T06:23:58;6.80;99.90
59556;DHT22;45374;52.746;6.304;2023-02-01T06:26:25;6.80;99.90
59556;DHT22;45374;52.746;6.304;2023-02-01T06:28:51;6.80;99.90
59556;DHT22;45374;52.746;6.304;2023-02-01T06:31:16;6.70;99.90
59556;DHT22;45374;52.746;6.304;2023-02-01T06:33:42;6.70;99.90
59556;DHT22;45374;52.746;6.304;2023-02-01T06:36:09;6.80;99.90
59556;DHT22;45374;52.746;6.304;2023-02-01T06:38:36;6.80;99.90
59556;DHT22;45374;52.746;6.304;2023-02-01T06:41:02;6.80;99.90
59556;DHT22;45374;52.746;6.304;2023-02-01T06:43:29;6.80;99.90
59556;DHT22;45374;52.746;6.304;2023-02-01T06:46:00;6.80;99.90
59556;DHT22;45374;52.746;6.304;2023-02-01T06:48:26;6.80;99.90
59556;DHT22;45374;52.746;6.304;2023-02-01T06:50:52;6.80;99.90
59556;DHT22;45374;52.746;6.304;2023-02-01T06:53:17;6.80;99.90
59556;DHT22;45374;52.746;6.304;2023-02-01T06:55:52;6.70;99.90
59556;DHT22;45374;52.746;6.304;2023-02-01T06:58:17;6.70;99.90
59556;DHT22;45374;52.746;6.304;2023-02-01T07:00:43;6.70;99.90
59556;DHT22;45374;52.746;6.304;2023-02-01T07:03:08;6.70;99.90
59556;DHT22;45374;52.746;6.304;2023-02-01T07:05:34;6.70;99.90
59556;DHT22;45374;52.746;6.304;2023-02-01T07:07:59;6.70;99.90
59556;DHT22;45374;52.746;6.304;2023-02-01T07:10:25;6.70;99.90
59556;DHT22;45374;52.746;6.304;2023-02-01T07:12:51;6.70;99.90
59556;DHT22;45374;52.746;6.304;2023-02-01T07:15:16;6.70;99.90
59556;DHT22;45374;52.746;6.304;2023-02-01T07:17:42;6.70;99.90
59556;DHT22;45374;52.746;6.304;2023-02-01T07:20:08;6.70;99.90
59556;DHT22;45374;52.746;6.304;2023-02-01T07:22:34;6.70;99.90
59556;DHT22;45374;52.746;6.304;2023-02-01T07:24:59;6.70;99.90
59556;DHT22;45374;52.746;6.304;2023-02-01T07:27:25;6.70;99.90
59556;DHT22;45374;52.746;6.304;2023-02-01T07:29:51;6.80;99.90
59556;DHT22;45374;52.746;6.304;2023-02-01T07:32:17;6.70;99.90
59556;DHT22;45374;52.746;6.304;2023-02-01T07:34:44;6.60;99.90
59556;DHT22;45374;52.746;6.304;2023-02-01T07:37:10;6.70;99.90
59556;DHT22;45374;52.746;6.304;2023-02-01T07:39:35;6.60;99.90
59556;DHT22;45374;52.746;6.304;2023-02-01T07:42:01;6.50;99.90
59556;DHT22;45374;52.746;6.304;2023-02-01T07:44:27;6.40;99.90
59556;DHT22;45374;52.746;6.304;2023-02-01T07:46:52;6.40;99.90
59556;DHT22;45374;52.746;6.304;2023-02-01T07:49:18;6.30;99.90
59556;DHT22;45374;52.746;6.304;2023-02-01T07:51:44;6.30;99.90
59556;DHT22;45374;52.746;6.304;2023-02-01T07:54:09;6.20;99.90
59556;DHT22;45374;52.746;6.304;2023-02-01T07:56:35;6.10;99.90
59556;DHT22;45374;52.746;6.304;2023-02-01T07:59:01;6.00;99.90
59556;DHT22;45374;52.746;6.304;2023-02-01T08:01:28;6.00;99.90
59556;DHT22;45374;52.746;6.304;2023-02-01T08:03:55;6.00;99.90
59556;DHT22;45374;52.746;6.304;2023-02-01T08:06:22;6.00;99.90
59556;DHT22;45374;52.746;6.304;2023-02-01T08:08:49;6.00;99.90
59556;DHT22;45374;52.746;6.304;2023-02-01T08:11:15;6.00;99.90
59556;DHT22;45374;52.746;6.304;2023-02-01T08:13:41;6.00;99.90
59556;DHT22;45374;52.746;6.304;2023-02-01T08:16:08;6.10;99.90
59556;DHT22;45374;52.746;6.304;2023-02-01T08:18:36;6.10;99.90
59556;DHT22;45374;52.746;6.304;2023-02-01T08:21:06;6.10;99.90
59556;DHT22;45374;52.746;6.304;2023-02-01T08:23:35;6.10;99.90
59556;DHT22;45374;52.746;6.304;2023-02-01T08:26:25;6.20;99.90
59556;DHT22;45374;52.746;6.304;2023-02-01T08:28:56;6.20;99.90
59556;DHT22;45374;52.746;6.304;2023-02-01T08:31:24;6.30;99.90
59556;DHT22;45374;52.746;6.304;2023-02-01T08:33:54;6.40;99.90
59556;DHT22;45374;52.746;6.304;2023-02-01T08:36:20;6.40;99.90
59556;DHT22;45374;52.746;6.304;2023-02-01T08:38:46;6.40;99.90
59556;DHT22;45374;52.746;6.304;2023-02-01T08:41:17;6.40;99.90
59556;DHT22;45374;52.746;6.304;2023-02-01T08:43:43;6.40;99.90
59556;DHT22;45374;52.746;6.304;2023-02-01T08:46:09;6.40;99.90
59556;DHT22;45374;52.746;6.304;2023-02-01T08:48:35;6.40;99.90
59556;DHT22;45374;52.746;6.304;2023-02-01T08:51:09;6.50;99.90
59556;DHT22;45374;52.746;6.304;2023-02-01T08:53:36;6.50;99.90
59556;DHT22;45374;52.746;6.304;2023-02-01T08:56:02;6.50;99.90
59556;DHT22;45374;52.746;6.304;2023-02-01T08:58:28;6.50;99.90
59556;DHT22;45374;52.746;6.304;2023-02-01T09:00:54;6.50;99.90
59556;DHT22;45374;52.746;6.304;2023-02-01T09:03:20;6.50;99.90
59556;DHT22;45374;52.746;6.304;2023-02-01T09:05:45;6.50;99.90
59556;DHT22;45374;52.746;6.304;2023-02-01T09:08:11;6.60;99.90
59556;DHT22;45374;52.746;6.304;2023-02-01T09:10:41;6.60;99.90
59556;DHT22;45374;52.746;6.304;2023-02-01T09:13:07;6.60;99.90
59556;DHT22;45374;52.746;6.304;2023-02-01T09:15:33;6.60;99.90
59556;DHT22;45374;52.746;6.304;2023-02-01T09:17:59;6.60;99.90
59556;DHT22;45374;52.746;6.304;2023-02-01T09:20:24;6.60;99.90
59556;DHT22;45374;52.746;6.304;2023-02-01T09:22:51;6.70;99.90
59556;DHT22;45374;52.746;6.304;2023-02-01T09:25:17;6.60;99.90
59556;DHT22;45374;52.746;6.304;2023-02-01T09:27:43;6.60;99.90
59556;DHT22;45374;52.746;6.304;2023-02-01T09:30:09;6.50;99.90
59556;DHT22;45374;52.746;6.304;2023-02-01T09:32:35;6.50;99.90
59556;DHT22;45374;52.746;6.304;2023-02-01T09:35:01;6.50;99.90
59556;DHT22;45374;52.746;6.304;2023-02-01T09:37:27;6.50;99.90
59556;DHT22;45374;52.746;6.304;2023-02-01T09:39:52;6.50;99.90
59556;DHT22;45374;52.746;6.304;2023-02-01T09:47:55;6.60;99.90
59556;DHT22;45374;52.746;6.304;2023-02-01T09:50:35;6.60;99.90
59556;DHT22;45374;52.746;6.304;2023-02-01T09:53:16;6.60;99.90
59556;DHT22;45374;52.746;6.304;2023-02-01T09:55:46;6.70;99.90
59556;DHT22;45374;52.746;6.304;2023-02-01T09:58:32;6.60;99.90
59556;DHT22;45374;52.746;6.304;2023-02-01T10:01:02;6.60;99.90
59556;DHT22;45374;52.746;6.304;2023-02-01T10:03:31;6.60;99.90
59556;DHT22;45374;52.746;6.304;2023-02-01T10:06:23;6.60;99.90
59556;DHT22;45374;52.746;6.304;2023-02-01T10:11:42;6.50;99.90
59556;DHT22;45374;52.746;6.304;2023-02-01T10:20:15;6.40;99.90
59556;DHT22;45374;52.746;6.304;2023-02-01T10:23:06;6.50;99.90
59556;DHT22;45374;52.746;6.304;2023-02-01T10:28:13;6.50;99.90
59556;DHT22;45374;52.746;6.304;2023-02-01T10:30:44;6.50;99.90
59556;DHT22;45374;52.746;6.304;2023-02-01T10:33:34;6.50;99.90
59556;DHT22;45374;52.746;6.304;2023-02-01T10:36:25;6.50;99.90
59556;DHT22;45374;52.746;6.304;2023-02-01T10:38:53;6.50;99.90
59556;DHT22;45374;52.746;6.304;2023-02-01T10:41:23;6.40;99.90
59556;DHT22;45374;52.746;6.304;2023-02-01T10:43:54;6.30;99.90
59556;DHT22;45374;52.746;6.304;2023-02-01T10:46:22;6.20;99.90
59556;DHT22;45374;52.746;6.304;2023-02-01T10:48:49;6.10;99.90
59556;DHT22;45374;52.746;6.304;2023-02-01T10:51:26;6.10;99.90
59556;DHT22;45374;52.746;6.304;2023-02-01T10:54:14;6.10;99.90
59556;DHT22;45374;52.746;6.304;2023-02-01T10:56:43;6.10;99.90
59556;DHT22;45374;52.746;6.304;2023-02-01T10:59:18;6.20;99.90
59556;DHT22;45374;52.746;6.304;2023-02-01T11:01:47;6.20;99.90
59556;DHT22;45374;52.746;6.304;2023-02-01T11:04:18;6.30;99.90
59556;DHT22;45374;52.746;6.304;2023-02-01T11:07:08;6.30;99.90
59556;DHT22;45374;52.746;6.304;2023-02-01T11:09:40;6.40;99.90
59556;DHT22;45374;52.746;6.304;2023-02-01T11:12:22;6.40;99.90
59556;DHT22;45374;52.746;6.304;2023-02-01T11:14:50;6.50;99.90
59556;DHT22;45374;52.746;6.304;2023-02-01T11:17:24;6.50;99.90
59556;DHT22;45374;52.746;6.304;2023-02-01T11:20:21;6.60;99.90
59556;DHT22;45374;52.746;6.304;2023-02-01T11:22:48;6.60;99.90
59556;DHT22;45374;52.746;6.304;2023-02-01T11:25:16;6.60;99.90
59556;DHT22;45374;52.746;6.304;2023-02-01T11:27:43;6.60;99.90
59556;DHT22;45374;52.746;6.304;2023-02-01T11:30:16;6.60;99.90
59556;DHT22;45374;52.746;6.304;2023-02-01T11:32:43;6.70;99.90
59556;DHT22;45374;52.746;6.304;2023-02-01T11:35:15;6.80;99.90
59556;DHT22;45374;52.746;6.304;2023-02-01T11:37:42;6.70;99.90
59556;DHT22;45374;52.746;6.304;2023-02-01T11:43:13;6.60;99.90
59556;DHT22;45374;52.746;6.304;2023-02-01T11:45:39;6.50;99.90
59556;DHT22;45374;52.746;6.304;2023-02-01T11:48:15;6.50;99.90
59556;DHT22;45374;52.746;6.304;2023-02-01T11:51:48;6.40;99.90
59556;DHT22;45374;52.746;6.304;2023-02-01T11:59:28;6.30;99.90
59556;DHT22;45374;52.746;6.304;2023-02-01T12:15:55;6.60;99.90
59556;DHT22;45374;52.746;6.304;2023-02-01T12:21:04;6.70;99.90
59556;DHT22;45374;52.746;6.304;2023-02-01T12:23:54;6.80;99.90
59556;DHT22;45374;52.746;6.304;2023-02-01T12:37:11;6.70;99.90
59556;DHT22;45374;52.746;6.304;2023-02-01T12:39:39;6.60;99.90
59556;DHT22;45374;52.746;6.304;2023-02-01T12:47:44;6.50;99.90
59556;DHT22;45374;52.746;6.304;2023-02-01T12:50:34;6.60;99.90
59556;DHT22;45374;52.746;6.304;2023-02-01T12:55:35;6.70;99.90
59556;DHT22;45374;52.746;6.304;2023-02-01T12:58:09;6.70;99.90
59556;DHT22;45374;52.746;6.304;2023-02-01T13:06:32;6.90;99.90
59556;DHT22;45374;52.746;6.304;2023-02-01T13:09:21;7.00;99.90
59556;DHT22;45374;52.746;6.304;2023-02-01T13:11:53;7.10;99.90
59556;DHT22;45374;52.746;6.304;2023-02-01T13:14:33;7.10;99.90
59556;DHT22;45374;52.746;6.304;2023-02-01T13:17:18;7.30;99.90
59556;DHT22;45374;52.746;6.304;2023-02-01T13:22:35;7.50;99.90
59556;DHT22;45374;52.746;6.304;2023-02-01T13:27:36;7.70;99.90
59556;DHT22;45374;52.746;6.304;2023-02-01T13:30:19;7.80;99.90
59556;DHT22;45374;52.746;6.304;2023-02-01T13:33:06;7.90;99.90
59556;DHT22;45374;52.746;6.304;2023-02-01T13:43:32;7.90;99.90
59556;DHT22;45374;52.746;6.304;2023-02-01T13:46:05;7.90;99.90
59556;DHT22;45374;52.746;6.304;2023-02-01T13:51:13;7.90;99.90
59556;DHT22;45374;52.746;6.304;2023-02-01T13:53:46;8.00;99.90
59556;DHT22;45374;52.746;6.304;2023-02-01T13:56:20;8.00;99.90
59556;DHT22;45374;52.746;6.304;2023-02-01T13:58:48;8.00;99.90
59556;DHT22;45374;52.746;6.304;2023-02-01T14:03:58;8.00;99.90
59556;DHT22;45374;52.746;6.304;2023-02-01T14:09:12;8.10;99.90
59556;DHT22;45374;52.746;6.304;2023-02-01T14:19:34;8.30;99.90
59556;DHT22;45374;52.746;6.304;2023-02-01T14:24:41;8.30;99.90
59556;DHT22;45374;52.746;6.304;2023-02-01T14:29:39;8.10;99.90
59556;DHT22;45374;52.746;6.304;2023-02-01T14:32:06;8.10;99.90
59556;DHT22;45374;52.746;6.304;2023-02-01T14:34:52;8.10;99.90
59556;DHT22;45374;52.746;6.304;2023-02-01T14:44:51;8.00;99.90
59556;DHT22;45374;52.746;6.304;2023-02-01T14:50:41;8.00;99.90
59556;DHT22;45374;52.746;6.304;2023-02-01T14:57:54;8.10;99.90
59556;DHT22;45374;52.746;6.304;2023-02-01T15:00:27;8.10;99.90
59556;DHT22;45374;52.746;6.304;2023-02-01T15:03:00;8.10;99.90
59556;DHT22;45374;52.746;6.304;2023-02-01T15:05:37;8.10;99.90
59556;DHT22;45374;52.746;6.304;2023-02-01T15:08:10;8.10;99.90
59556;DHT22;45374;52.746;6.304;2023-02-01T15:10:43;8.10;99.90
59556;DHT22;45374;52.746;6.304;2023-02-01T15:13:24;8.10;99.90
59556;DHT22;45374;52.746;6.304;2023-02-01T15:16:01;8.10;99.90
59556;DHT22;45374;52.746;6.304;2023-02-01T15:18:27;8.10;99.90
59556;DHT22;45374;52.746;6.304;2023-02-01T15:20:57;8.20;99.90
59556;DHT22;45374;52.746;6.304;2023-02-01T15:23:24;8.20;99.90
59556;DHT22;45374;52.746;6.304;2023-02-01T15:25:50;8.20;99.90
59556;DHT22;45374;52.746;6.304;2023-02-01T15:28:17;8.10;99.90
59556;DHT22;45374;52.746;6.304;2023-02-01T15:31:15;8.20;99.90
59556;DHT22;45374;52.746;6.304;2023-02-01T15:33:57;8.10;99.90
59556;DHT22;45374;52.746;6.304;2023-02-01T15:36:23;8.10;99.90
59556;DHT22;45374;52.746;6.304;2023-02-01T15:42:12;8.00;99.90
59556;DHT22;45374;52.746;6.304;2023-02-01T15:44:44;8.00;99.90
59556;DHT22;45374;52.746;6.304;2023-02-01T15:47:37;7.90;99.90
59556;DHT22;45374;52.746;6.304;2023-02-01T15:50:12;7.90;99.90
59556;DHT22;45374;52.746;6.304;2023-02-01T15:52:39;7.80;99.90
59556;DHT22;45374;52.746;6.304;2023-02-01T15:55:23;7.80;99.90
59556;DHT22;45374;52.746;6.304;2023-02-01T15:57:50;7.70;99.90
59556;DHT22;45374;52.746;6.304;2023-02-01T16:00:44;7.70;99.90
59556;DHT22;45374;52.746;6.304;2023-02-01T16:06:00;7.60;99.90
59556;DHT22;45374;52.746;6.304;2023-02-01T16:08:29;7.50;99.90
59556;DHT22;45374;52.746;6.304;2023-02-01T16:13:36;7.40;99.90
59556;DHT22;45374;52.746;6.304;2023-02-01T16:16:02;7.50;99.90
59556;DHT22;45374;52.746;6.304;2023-02-01T16:18:29;7.50;99.90
59556;DHT22;45374;52.746;6.304;2023-02-01T16:20:54;7.30;99.90
59556;DHT22;45374;52.746;6.304;2023-02-01T16:23:22;7.30;99.90
59556;DHT22;45374;52.746;6.304;2023-02-01T16:25:47;7.30;99.90
59556;DHT22;45374;52.746;6.304;2023-02-01T16:28:13;7.30;99.90
59556;DHT22;45374;52.746;6.304;2023-02-01T16:30:39;7.30;99.90
59556;DHT22;45374;52.746;6.304;2023-02-01T16:33:06;7.30;99.90
59556;DHT22;45374;52.746;6.304;2023-02-01T16:35:37;7.30;99.90
59556;DHT22;45374;52.746;6.304;2023-02-01T16:38:04;7.30;99.90
59556;DHT22;45374;52.746;6.304;2023-02-01T16:40:37;7.30;99.90
59556;DHT22;45374;52.746;6.304;2023-02-01T16:43:18;7.30;99.90
59556;DHT22;45374;52.746;6.304;2023-02-01T16:45:45;7.30;99.90
59556;DHT22;45374;52.746;6.304;2023-02-01T16:48:35;7.30;99.90
59556;DHT22;45374;52.746;6.304;2023-02-01T16:51:07;7.30;99.90
59556;DHT22;45374;52.746;6.304;2023-02-01T16:53:33;7.20;99.90
59556;DHT22;45374;52.746;6.304;2023-02-01T16:55:59;7.20;99.90
59556;DHT22;45374;52.746;6.304;2023-02-01T16:58:26;7.20;99.90
59556;DHT22;45374;52.746;6.304;2023-02-01T17:00:53;7.10;99.90
59556;DHT22;45374;52.746;6.304;2023-02-01T17:03:20;7.10;99.90
59556;DHT22;45374;52.746;6.304;2023-02-01T17:05:55;7.10;99.90
59556;DHT22;45374;52.746;6.304;2023-02-01T17:08:34;7.20;99.90
59556;DHT22;45374;52.746;6.304;2023-02-01T17:11:01;7.20;99.90
59556;DHT22;45374;52.746;6.304;2023-02-01T17:13:26;7.20;99.90
59556;DHT22;45374;52.746;6.304;2023-02-01T17:19:13;7.10;99.90
59556;DHT22;45374;52.746;6.304;2023-02-01T17:21:50;7.20;99.90
59556;DHT22;45374;52.746;6.304;2023-02-01T17:24:21;7.10;99.90
59556;DHT22;45374;52.746;6.304;2023-02-01T17:26:46;7.10;99.90
59556;DHT22;45374;52.746;6.304;2023-02-01T17:29:12;7.00;99.90
59556;DHT22;45374;52.746;6.304;2023-02-01T17:31:40;7.00;99.90
59556;DHT22;45374;52.746;6.304;2023-02-01T17:34:09;7.00;99.90
59556;DHT22;45374;52.746;6.304;2023-02-01T17:36:35;7.00;99.90
59556;DHT22;45374;52.746;6.304;2023-02-01T17:39:01;6.90;99.90
59556;DHT22;45374;52.746;6.304;2023-02-01T17:41:27;7.00;99.90
59556;DHT22;45374;52.746;6.304;2023-02-01T17:43:53;7.00;99.90
59556;DHT22;45374;52.746;6.304;2023-02-01T17:46:18;7.00;99.90
59556;DHT22;45374;52.746;6.304;2023-02-01T17:48:45;7.00;99.90
59556;DHT22;45374;52.746;6.304;2023-02-01T17:51:19;7.00;99.90
59556;DHT22;45374;52.746;6.304;2023-02-01T17:53:45;7.00;99.90
59556;DHT22;45374;52.746;6.304;2023-02-01T17:56:16;7.00;99.90
59556;DHT22;45374;52.746;6.304;2023-02-01T17:58:42;7.00;99.90
59556;DHT22;45374;52.746;6.304;2023-02-01T18:01:13;7.00;99.90
59556;DHT22;45374;52.746;6.304;2023-02-01T18:03:39;7.10;99.90
59556;DHT22;45374;52.746;6.304;2023-02-01T18:06:09;7.10;99.90
59556;DHT22;45374;52.746;6.304;2023-02-01T18:08:35;7.00;99.90
59556;DHT22;45374;52.746;6.304;2023-02-01T18:11:01;7.00;99.90
59556;DHT22;45374;52.746;6.304;2023-02-01T18:13:30;7.00;99.90
59556;DHT22;45374;52.746;6.304;2023-02-01T18:15:57;7.10;99.90
59556;DHT22;45374;52.746;6.304;2023-02-01T18:18:26;7.00;99.90
59556;DHT22;45374;52.746;6.304;2023-02-01T18:20:55;6.90;99.90
59556;DHT22;45374;52.746;6.304;2023-02-01T18:23:22;6.90;99.90
59556;DHT22;45374;52.746;6.304;2023-02-01T18:25:49;6.80;99.90
59556;DHT22;45374;52.746;6.304;2023-02-01T18:28:16;6.80;99.90
59556;DHT22;45374;52.746;6.304;2023-02-01T18:30:44;6.80;99.90
59556;DHT22;45374;52.746;6.304;2023-02-01T18:33:12;6.70;99.90
59556;DHT22;45374;52.746;6.304;2023-02-01T18:35:38;6.70;99.90
59556;DHT22;45374;52.746;6.304;2023-02-01T18:38:04;6.60;99.90
59556;DHT22;45374;52.746;6.304;2023-02-01T18:40:33;6.70;99.90
59556;DHT22;45374;52.746;6.304;2023-02-01T18:42:59;6.60;99.90
59556;DHT22;45374;52.746;6.304;2023-02-01T18:45:36;6.60;99.90